sensor_id;sensor_type;location;lat;lon;timestamp;P1;P2;P0
27143;PMS1003;14672;50.250;8.312;2023-02-08T00:00:32;24.00;22.00;12.00
27143;PMS1003;14672;50.250;8.312;2023-02-08T00:02:58;25.33;23.33;12.00
27143;PMS1003;14672;50.250;8.312;2023-02-08T00:05:24;20.67;18.67;10.00
27143;PMS1003;14672;50.250;8.312;2023-02-08T00:07:50;26.00;24.50;13.00
27143;PMS1003;14672;50.250;8.312;2023-02-08T00:10:16;21.33;20.00;10.00
27143;PMS1003;14672;50.250;8.312;2023-02-08T00:12:41;21.33;21.33;10.67
27143;PMS1003;14672;50.250;8.312;2023-02-08T00:15:07;21.00;19.00;10.00
27143;PMS1003;14672;50.250;8.312;2023-02-08T00:17:34;24.00;19.00;8.50
27143;PMS1003;14672;50.250;8.312;2023-02-08T00:20:02;26.80;24.00;12.80
27143;PMS1003;14672;50.250;8.312;2023-02-08T00:22:28;27.20;25.20;10.80
27143;PMS1003;14672;50.250;8.312;2023-02-08T00:24:55;20.00;19.50;8.50
27143;PMS1003;14672;50.250;8.312;2023-02-08T00:27:21;23.33;21.33;8.00
27143;PMS1003;14672;50.250;8.312;2023-02-08T00:29:47;28.00;25.00;10.00
27143;PMS1003;14672;50.250;8.312;2023-02-08T00:32:13;19.33;18.00;8.00
27143;PMS1003;14672;50.250;8.312;2023-02-08T00:34:38;22.00;22.00;10.00
27143;PMS1003;14672;50.250;8.312;2023-02-08T00:37:05;22.67;21.33;8.67
27143;PMS1003;14672;50.250;8.312;2023-02-08T00:39:31;20.40;18.00;8.40
27143;PMS1003;14672;50.250;8.312;2023-02-08T00:41:57;24.50;19.00;10.00
27143;PMS1003;14672;50.250;8.312;2023-02-08T00:44:24;26.00;23.20;10.80
27143;PMS1003;14672;50.250;8.312;2023-02-08T00:46:52;18.00;16.67;7.33
27143;PMS1003;14672;50.250;8.312;2023-02-08T00:49:21;20.00;20.00;10.00
27143;PMS1003;14672;50.250;8.312;2023-02-08T00:51:47;20.00;17.50;6.00
27143;PMS1003;14672;50.250;8.312;2023-02-08T00:54:17;17.50;17.50;7.50
27143;PMS1003;14672;50.250;8.312;2023-02-08T00:56:45;17.00;16.50;7.50
27143;PMS1003;14672;50.250;8.312;2023-02-08T00:59:13;23.50;20.00;9.50
27143;PMS1003;14672;50.250;8.312;2023-02-08T01:01:42;18.50;17.00;8.50
27143;PMS1003;14672;50.250;8.312;2023-02-08T01:04:08;18.00;18.00;7.33
27143;PMS1003;14672;50.250;8.312;2023-02-08T01:06:34;20.00;18.00;8.00
27143;PMS1003;14672;50.250;8.312;2023-02-08T01:09:00;20.00;20.00;8.00
27143;PMS1003;14672;50.250;8.312;2023-02-08T01:11:26;24.67;20.00;8.67
27143;PMS1003;14672;50.250;8.312;2023-02-08T01:13:53;15.50;14.00;6.50
27143;PMS1003;14672;50.250;8.312;2023-02-08T01:16:25;23.00;20.50;6.00
27143;PMS1003;14672;50.250;8.312;2023-02-08T01:18:55;20.00;18.00;8.00
27143;PMS1003;14672;50.250;8.312;2023-02-08T01:21:25;24.50;23.00;9.50
27143;PMS1003;14672;50.250;8.312;2023-02-08T01:23:54;20.00;19.50;8.00
27143;PMS1003;14672;50.250;8.312;2023-02-08T01:26:20;21.50;20.50;8.50
27143;PMS1003;14672;50.250;8.312;2023-02-08T01:28:49;17.50;16.00;6.00
27143;PMS1003;14672;50.250;8.312;2023-02-08T01:31:16;20.50;19.50;9.00
27143;PMS1003;14672;50.250;8.312;2023-02-08T01:33:52;18.00;17.50;8.00
27143;PMS1003;14672;50.250;8.312;2023-02-08T01:36:18;20.00;18.00;8.00
27143;PMS1003;14672;50.250;8.312;2023-02-08T01:38:44;21.33;17.33;8.00
27143;PMS1003;14672;50.250;8.312;2023-02-08T01:41:15;18.00;16.50;8.00
27143;PMS1003;14672;50.250;8.312;2023-02-08T01:46:38;20.00;18.50;8.00
27143;PMS1003;14672;50.250;8.312;2023-02-08T01:49:10;18.00;15.50;8.00
27143;PMS1003;14672;50.250;8.312;2023-02-08T01:51:57;17.00;16.00;8.50
27143;PMS1003;14672;50.250;8.312;2023-02-08T01:54:36;18.00;15.50;6.50
27143;PMS1003;14672;50.250;8.312;2023-02-08T01:57:20;22.50;20.50;8.50
27143;PMS1003;14672;50.250;8.312;2023-02-08T01:59:48;30.80;26.40;10.00
27143;PMS1003;14672;50.250;8.312;2023-02-08T02:02:21;20.00;20.00;7.50
27143;PMS1003;14672;50.250;8.312;2023-02-08T02:04:49;16.50;16.50;8.00
27143;PMS1003;14672;50.250;8.312;2023-02-08T02:07:16;13.00;13.00;6.00
27143;PMS1003;14672;50.250;8.312;2023-02-08T02:12:35;21.50;16.00;6.00
27143;PMS1003;14672;50.250;8.312;2023-02-08T02:15:04;19.60;19.60;10.00
27143;PMS1003;14672;50.250;8.312;2023-02-08T02:17:32;18.00;18.00;8.40
27143;PMS1003;14672;50.250;8.312;2023-02-08T02:23:02;23.20;19.20;10.00
27143;PMS1003;14672;50.250;8.312;2023-02-08T02:25:59;18.00;16.50;7.00
27143;PMS1003;14672;50.250;8.312;2023-02-08T02:37:29;13.50;13.50;6.00
27143;PMS1003;14672;50.250;8.312;2023-02-08T02:43:22;24.00;21.60;8.00
27143;PMS1003;14672;50.250;8.312;2023-02-08T02:48:50;16.50;15.50;6.00
27143;PMS1003;14672;50.250;8.312;2023-02-08T02:51:33;15.00;13.00;5.50
27143;PMS1003;14672;50.250;8.312;2023-02-08T02:56:41;18.00;18.00;8.00
27143;PMS1003;14672;50.250;8.312;2023-02-08T02:59:10;16.00;15.00;7.00
27143;PMS1003;14672;50.250;8.312;2023-02-08T03:01:39;23.00;18.50;6.00
27143;PMS1003;14672;50.250;8.312;2023-02-08T03:04:15;16.50;12.00;4.00
27143;PMS1003;14672;50.250;8.312;2023-02-08T03:23:48;22.00;20.00;6.50
27143;PMS1003;14672;50.250;8.312;2023-02-08T03:26:52;15.20;14.80;8.00
27143;PMS1003;14672;50.250;8.312;2023-02-08T03:35:08;19.00;17.50;6.00
27143;PMS1003;14672;50.250;8.312;2023-02-08T03:37:57;18.00;15.50;6.00
27143;PMS1003;14672;50.250;8.312;2023-02-08T03:40:42;21.00;17.50;6.00
27143;PMS1003;14672;50.250;8.312;2023-02-08T03:43:13;16.00;14.00;4.00
27143;PMS1003;14672;50.250;8.312;2023-02-08T03:45:46;18.00;17.00;8.00
27143;PMS1003;14672;50.250;8.312;2023-02-08T03:48:23;13.50;12.50;4.50
27143;PMS1003;14672;50.250;8.312;2023-02-08T03:50:51;16.40;15.20;6.00
27143;PMS1003;14672;50.250;8.312;2023-02-08T03:53:20;20.40;19.60;10.00
27143;PMS1003;14672;50.250;8.312;2023-02-08T03:55:48;19.50;17.50;8.00
27143;PMS1003;14672;50.250;8.312;2023-02-08T03:58:23;18.80;18.00;8.00
27143;PMS1003;14672;50.250;8.312;2023-02-08T04:01:05;22.50;19.50;10.00
27143;PMS1003;14672;50.250;8.312;2023-02-08T04:03:41;14.50;12.50;6.00
27143;PMS1003;14672;50.250;8.312;2023-02-08T04:06:09;19.00;17.00;6.00
27143;PMS1003;14672;50.250;8.312;2023-02-08T04:08:35;13.00;12.00;4.00
27143;PMS1003;14672;50.250;8.312;2023-02-08T04:11:01;19.33;19.33;8.00
27143;PMS1003;14672;50.250;8.312;2023-02-08T04:13:26;22.00;18.00;6.50
27143;PMS1003;14672;50.250;8.312;2023-02-08T04:15:52;26.67;20.67;6.00
27143;PMS1003;14672;50.250;8.312;2023-02-08T04:18:18;20.00;20.00;8.00
27143;PMS1003;14672;50.250;8.312;2023-02-08T04:20:44;17.50;17.00;7.00
27143;PMS1003;14672;50.250;8.312;2023-02-08T04:23:09;14.67;14.67;6.67
27143;PMS1003;14672;50.250;8.312;2023-02-08T04:25:35;20.00;16.00;6.00
27143;PMS1003;14672;50.250;8.312;2023-02-08T04:28:01;16.00;14.00;6.00
27143;PMS1003;14672;50.250;8.312;2023-02-08T04:30:27;14.67;12.00;4.00
27143;PMS1003;14672;50.250;8.312;2023-02-08T04:32:53;17.33;15.33;7.33
27143;PMS1003;14672;50.250;8.312;2023-02-08T04:35:19;18.67;16.00;6.00
27143;PMS1003;14672;50.250;8.312;2023-02-08T04:37:44;16.00;14.00;5.33
27143;PMS1003;14672;50.250;8.312;2023-02-08T04:40:10;22.00;20.67;8.00
27143;PMS1003;14672;50.250;8.312;2023-02-08T04:42:36;18.00;17.50;8.00
27143;PMS1003;14672;50.250;8.312;2023-02-08T04:45:02;12.67;12.67;4.00
27143;PMS1003;14672;50.250;8.312;2023-02-08T04:47:28;21.00;18.50;9.00
27143;PMS1003;14672;50.250;8.312;2023-02-08T04:49:54;13.33;13.33;6.00
27143;PMS1003;14672;50.250;8.312;2023-02-08T04:52:19;29.33;22.00;8.00
27143;PMS1003;14672;50.250;8.312;2023-02-08T04:54:45;16.00;14.00;6.00
27143;PMS1003;14672;50.250;8.312;2023-02-08T04:57:11;17.33;15.33;4.00
27143;PMS1003;14672;50.250;8.312;2023-02-08T04:59:38;19.00;16.50;6.50
27143;PMS1003;14672;50.250;8.312;2023-02-08T05:02:04;14.50;14.00;6.50
27143;PMS1003;14672;50.250;8.312;2023-02-08T05:04:30;11.50;11.50;6.50
27143;PMS1003;14672;50.250;8.312;2023-02-08T05:06:57;22.40;22.00;10.00
27143;PMS1003;14672;50.250;8.312;2023-02-08T05:09:23;15.50;13.00;5.00
27143;PMS1003;14672;50.250;8.312;2023-02-08T05:11:49;16.00;14.00;6.00
27143;PMS1003;14672;50.250;8.312;2023-02-08T05:14:14;14.50;14.50;4.50
27143;PMS1003;14672;50.250;8.312;2023-02-08T05:16:40;17.33;17.33;6.00
27143;PMS1003;14672;50.250;8.312;2023-02-08T05:19:06;16.00;14.00;6.67
27143;PMS1003;14672;50.250;8.312;2023-02-08T05:21:33;21.50;18.50;8.50
27143;PMS1003;14672;50.250;8.312;2023-02-08T05:23:59;14.00;14.00;6.00
27143;PMS1003;14672;50.250;8.312;2023-02-08T05:26:24;15.33;14.00;5.33
27143;PMS1003;14672;50.250;8.312;2023-02-08T05:28:50;20.00;16.00;6.00
27143;PMS1003;14672;50.250;8.312;2023-02-08T05:31:17;19.50;18.50;8.00
27143;PMS1003;14672;50.250;8.312;2023-02-08T05:33:50;18.00;14.50;8.00
27143;PMS1003;14672;50.250;8.312;2023-02-08T05:36:17;20.00;20.00;8.00
27143;PMS1003;14672;50.250;8.312;2023-02-08T05:38:44;14.00;13.50;6.50
27143;PMS1003;14672;50.250;8.312;2023-02-08T05:41:10;18.00;14.00;6.00
27143;PMS1003;14672;50.250;8.312;2023-02-08T05:43:35;19.33;18.00;8.00
27143;PMS1003;14672;50.250;8.312;2023-02-08T05:46:02;14.00;12.50;4.00
27143;PMS1003;14672;50.250;8.312;2023-02-08T05:48:28;19.20;16.00;6.80
27143;PMS1003;14672;50.250;8.312;2023-02-08T05:50:55;19.50;18.50;7.00
27143;PMS1003;14672;50.250;8.312;2023-02-08T05:53:21;17.33;17.33;8.00
27143;PMS1003;14672;50.250;8.312;2023-02-08T05:55:47;20.67;18.67;8.67
27143;PMS1003;14672;50.250;8.312;2023-02-08T05:58:13;18.67;16.00;6.00
27143;PMS1003;14672;50.250;8.312;2023-02-08T06:00:40;17.50;17.50;8.00
27143;PMS1003;14672;50.250;8.312;2023-02-08T06:03:06;18.00;18.00;6.67
27143;PMS1003;14672;50.250;8.312;2023-02-08T06:05:32;20.50;20.00;8.50
27143;PMS1003;14672;50.250;8.312;2023-02-08T06:07:59;15.50;14.50;6.00
27143;PMS1003;14672;50.250;8.312;2023-02-08T06:10:24;16.00;15.33;6.00
27143;PMS1003;14672;50.250;8.312;2023-02-08T06:12:50;22.67;18.67;7.33
27143;PMS1003;14672;50.250;8.312;2023-02-08T06:15:16;16.67;14.00;6.00
27143;PMS1003;14672;50.250;8.312;2023-02-08T06:17:42;20.00;18.00;10.00
27143;PMS1003;14672;50.250;8.312;2023-02-08T06:20:08;25.00;22.00;8.00
27143;PMS1003;14672;50.250;8.312;2023-02-08T06:22:34;15.00;15.00;6.50
27143;PMS1003;14672;50.250;8.312;2023-02-08T06:25:08;18.00;17.50;8.00
27143;PMS1003;14672;50.250;8.312;2023-02-08T06:27:34;21.00;20.50;9.00
27143;PMS1003;14672;50.250;8.312;2023-02-08T06:30:00;14.67;14.67;7.33
27143;PMS1003;14672;50.250;8.312;2023-02-08T06:32:27;13.60;13.60;6.40
27143;PMS1003;14672;50.250;8.312;2023-02-08T06:34:53;14.00;14.00;5.00
27143;PMS1003;14672;50.250;8.312;2023-02-08T06:37:20;18.50;17.50;6.00
27143;PMS1003;14672;50.250;8.312;2023-02-08T06:39:46;15.00;13.50;5.00
27143;PMS1003;14672;50.250;8.312;2023-02-08T06:42:12;23.20;19.60;9.20
27143;PMS1003;14672;50.250;8.312;2023-02-08T06:44:41;16.80;15.60;6.40
27143;PMS1003;14672;50.250;8.312;2023-02-08T06:47:12;17.20;15.60;6.80
27143;PMS1003;14672;50.250;8.312;2023-02-08T06:49:39;15.60;15.60;8.00
27143;PMS1003;14672;50.250;8.312;2023-02-08T06:52:05;14.00;14.00;5.60
27143;PMS1003;14672;50.250;8.312;2023-02-08T06:54:31;20.00;18.00;8.50
27143;PMS1003;14672;50.250;8.312;2023-02-08T06:57:03;20.00;17.00;6.00
27143;PMS1003;14672;50.250;8.312;2023-02-08T06:59:31;19.60;17.60;8.00
27143;PMS1003;14672;50.250;8.312;2023-02-08T07:01:56;18.00;16.67;6.67
27143;PMS1003;14672;50.250;8.312;2023-02-08T07:04:22;13.33;13.33;6.00
27143;PMS1003;14672;50.250;8.312;2023-02-08T07:06:48;16.50;15.50;8.00
27143;PMS1003;14672;50.250;8.312;2023-02-08T07:09:14;21.33;14.67;6.00
27143;PMS1003;14672;50.250;8.312;2023-02-08T07:11:41;21.20;18.00;8.80
27143;PMS1003;14672;50.250;8.312;2023-02-08T07:14:10;20.50;20.50;8.00
27143;PMS1003;14672;50.250;8.312;2023-02-08T07:16:37;24.80;20.40;8.00
27143;PMS1003;14672;50.250;8.312;2023-02-08T07:19:04;19.00;18.00;5.50
27143;PMS1003;14672;50.250;8.312;2023-02-08T07:21:30;17.00;15.50;6.00
27143;PMS1003;14672;50.250;8.312;2023-02-08T07:23:55;21.50;20.50;10.00
27143;PMS1003;14672;50.250;8.312;2023-02-08T07:26:21;25.00;22.50;9.00
27143;PMS1003;14672;50.250;8.312;2023-02-08T07:28:47;17.50;17.50;9.50
27143;PMS1003;14672;50.250;8.312;2023-02-08T07:31:14;24.00;18.00;8.00
27143;PMS1003;14672;50.250;8.312;2023-02-08T07:33:41;28.80;22.40;10.00
27143;PMS1003;14672;50.250;8.312;2023-02-08T07:36:08;24.00;19.60;9.60
27143;PMS1003;14672;50.250;8.312;2023-02-08T07:38:35;22.00;19.60;8.80
27143;PMS1003;14672;50.250;8.312;2023-02-08T07:41:04;25.20;22.80;10.40
27143;PMS1003;14672;50.250;8.312;2023-02-08T07:43:36;20.40;18.00;8.80
27143;PMS1003;14672;50.250;8.312;2023-02-08T07:46:04;25.60;23.60;11.60
27143;PMS1003;14672;50.250;8.312;2023-02-08T07:48:36;20.00;20.00;10.00
27143;PMS1003;14672;50.250;8.312;2023-02-08T07:51:02;24.00;21.20;8.40
27143;PMS1003;14672;50.250;8.312;2023-02-08T07:53:29;24.00;22.40;10.00
27143;PMS1003;14672;50.250;8.312;2023-02-08T07:55:55;23.20;22.80;12.40
27143;PMS1003;14672;50.250;8.312;2023-02-08T07:58:21;21.50;21.50;12.00
27143;PMS1003;14672;50.250;8.312;2023-02-08T08:00:47;24.67;22.67;8.00
27143;PMS1003;14672;50.250;8.312;2023-02-08T08:03:13;24.50;21.50;12.00
27143;PMS1003;14672;50.250;8.312;2023-02-08T08:05:39;22.00;21.00;11.50
27143;PMS1003;14672;50.250;8.312;2023-02-08T08:08:06;45.20;34.00;17.20
27143;PMS1003;14672;50.250;8.312;2023-02-08T08:10:33;48.40;44.00;24.40
27143;PMS1003;14672;50.250;8.312;2023-02-08T08:12:59;55.00;51.00;25.00
27143;PMS1003;14672;50.250;8.312;2023-02-08T08:15:25;47.00;41.50;23.00
27143;PMS1003;14672;50.250;8.312;2023-02-08T08:17:52;43.20;38.40;19.60
27143;PMS1003;14672;50.250;8.312;2023-02-08T08:20:18;36.80;28.80;14.80
27143;PMS1003;14672;50.250;8.312;2023-02-08T08:22:44;41.20;35.20;16.80
27143;PMS1003;14672;50.250;8.312;2023-02-08T08:25:10;45.20;36.00;16.40
27143;PMS1003;14672;50.250;8.312;2023-02-08T08:27:36;37.00;34.00;18.00
27143;PMS1003;14672;50.250;8.312;2023-02-08T08:30:04;60.40;50.80;27.20
27143;PMS1003;14672;50.250;8.312;2023-02-08T08:32:36;71.20;62.40;35.60
27143;PMS1003;14672;50.250;8.312;2023-02-08T08:35:03;77.20;66.00;36.80
27143;PMS1003;14672;50.250;8.312;2023-02-08T08:37:30;78.80;63.20;36.00
27143;PMS1003;14672;50.250;8.312;2023-02-08T08:39:56;87.50;66.50;38.00
27143;PMS1003;14672;50.250;8.312;2023-02-08T08:42:22;71.20;60.00;36.80
27143;PMS1003;14672;50.250;8.312;2023-02-08T08:44:48;82.00;68.00;40.00
27143;PMS1003;14672;50.250;8.312;2023-02-08T08:47:14;76.00;67.00;35.50
27143;PMS1003;14672;50.250;8.312;2023-02-08T08:49:40;81.00;63.50;34.50
27143;PMS1003;14672;50.250;8.312;2023-02-08T08:52:08;85.50;72.00;43.00
27143;PMS1003;14672;50.250;8.312;2023-02-08T08:54:35;95.00;77.50;46.00
27143;PMS1003;14672;50.250;8.312;2023-02-08T08:57:01;92.50;73.00;44.50
27143;PMS1003;14672;50.250;8.312;2023-02-08T08:59:27;69.60;64.00;38.40
27143;PMS1003;14672;50.250;8.312;2023-02-08T09:01:53;74.50;60.00;35.50
27143;PMS1003;14672;50.250;8.312;2023-02-08T09:04:19;59.50;51.00;27.00
27143;PMS1003;14672;50.250;8.312;2023-02-08T09:06:50;58.80;52.00;26.80
27143;PMS1003;14672;50.250;8.312;2023-02-08T09:09:17;43.60;38.40;18.00
27143;PMS1003;14672;50.250;8.312;2023-02-08T09:11:46;48.00;39.20;22.80
27143;PMS1003;14672;50.250;8.312;2023-02-08T09:14:12;43.00;40.50;21.50
27143;PMS1003;14672;50.250;8.312;2023-02-08T09:16:39;50.00;46.00;24.40
27143;PMS1003;14672;50.250;8.312;2023-02-08T09:19:07;50.50;43.00;25.50
27143;PMS1003;14672;50.250;8.312;2023-02-08T09:21:34;45.50;42.50;24.00
27143;PMS1003;14672;50.250;8.312;2023-02-08T09:24:00;42.67;38.67;22.00
27143;PMS1003;14672;50.250;8.312;2023-02-08T09:26:27;47.25;44.75;24.25
27143;PMS1003;14672;50.250;8.312;2023-02-08T09:28:53;52.00;48.50;27.25
27143;PMS1003;14672;50.250;8.312;2023-02-08T09:33:53;39.75;37.75;17.00
27143;PMS1003;14672;50.250;8.312;2023-02-08T09:36:24;42.25;38.00;21.25
27143;PMS1003;14672;50.250;8.312;2023-02-08T09:38:53;30.25;27.75;13.25
27143;PMS1003;14672;50.250;8.312;2023-02-08T09:41:31;31.00;29.00;14.75
27143;PMS1003;14672;50.250;8.312;2023-02-08T09:47:28;32.75;30.75;15.25
27143;PMS1003;14672;50.250;8.312;2023-02-08T09:55:29;34.00;28.50;15.00
27143;PMS1003;14672;50.250;8.312;2023-02-08T10:01:24;31.25;29.75;16.25
27143;PMS1003;14672;50.250;8.312;2023-02-08T10:03:58;30.25;29.25;15.75
27143;PMS1003;14672;50.250;8.312;2023-02-08T10:06:50;33.25;29.75;13.75
27143;PMS1003;14672;50.250;8.312;2023-02-08T10:09:17;27.67;26.00;14.00
27143;PMS1003;14672;50.250;8.312;2023-02-08T10:11:58;24.25;24.25;13.75
27143;PMS1003;14672;50.250;8.312;2023-02-08T10:20:45;37.75;32.50;18.25
27143;PMS1003;14672;50.250;8.312;2023-02-08T10:37:15;37.50;34.00;17.75
27143;PMS1003;14672;50.250;8.312;2023-02-08T10:39:45;33.00;31.75;14.50
27143;PMS1003;14672;50.250;8.312;2023-02-08T10:42:15;31.00;30.00;15.00
27143;PMS1003;14672;50.250;8.312;2023-02-08T10:47:48;35.25;32.75;15.00
27143;PMS1003;14672;50.250;8.312;2023-02-08T10:53:00;34.50;29.00;14.75
27143;PMS1003;14672;50.250;8.312;2023-02-08T10:55:29;32.00;30.50;13.00
27143;PMS1003;14672;50.250;8.312;2023-02-08T10:57:58;30.50;26.75;14.00
27143;PMS1003;14672;50.250;8.312;2023-02-08T11:00:27;30.50;28.00;12.00
27143;PMS1003;14672;50.250;8.312;2023-02-08T11:03:01;35.00;30.25;11.25
27143;PMS1003;14672;50.250;8.312;2023-02-08T11:05:51;31.75;28.25;10.75
27143;PMS1003;14672;50.250;8.312;2023-02-08T11:08:25;33.50;26.00;13.50
27143;PMS1003;14672;50.250;8.312;2023-02-08T11:11:05;26.00;23.50;13.75
27143;PMS1003;14672;50.250;8.312;2023-02-08T11:13:38;26.50;25.25;12.00
27143;PMS1003;14672;50.250;8.312;2023-02-08T11:16:06;33.25;31.75;16.25
27143;PMS1003;14672;50.250;8.312;2023-02-08T11:18:50;28.75;26.50;12.00
27143;PMS1003;14672;50.250;8.312;2023-02-08T11:21:29;25.50;25.50;12.00
27143;PMS1003;14672;50.250;8.312;2023-02-08T11:27:15;29.50;26.25;12.75
27143;PMS1003;14672;50.250;8.312;2023-02-08T11:32:43;24.75;22.75;10.00
27143;PMS1003;14672;50.250;8.312;2023-02-08T11:35:24;18.75;18.75;8.00
27143;PMS1003;14672;50.250;8.312;2023-02-08T11:37:55;30.75;29.50;15.50
27143;PMS1003;14672;50.250;8.312;2023-02-08T11:42:59;21.50;20.00;8.50
27143;PMS1003;14672;50.250;8.312;2023-02-08T11:45:28;23.75;22.50;8.75
27143;PMS1003;14672;50.250;8.312;2023-02-08T11:48:00;21.00;19.50;9.00
27143;PMS1003;14672;50.250;8.312;2023-02-08T11:50:30;25.25;21.00;9.75
27143;PMS1003;14672;50.250;8.312;2023-02-08T11:53:01;26.25;22.25;10.75
27143;PMS1003;14672;50.250;8.312;2023-02-08T11:55:41;20.50;19.50;9.75
27143;PMS1003;14672;50.250;8.312;2023-02-08T12:00:36;21.50;21.25;8.50
27143;PMS1003;14672;50.250;8.312;2023-02-08T12:03:05;23.25;21.00;10.75
27143;PMS1003;14672;50.250;8.312;2023-02-08T12:08:42;24.75;22.00;11.00
27143;PMS1003;14672;50.250;8.312;2023-02-08T12:28:23;18.25;18.25;11.00
27143;PMS1003;14672;50.250;8.312;2023-02-08T12:31:29;19.75;18.50;8.25
27143;PMS1003;14672;50.250;8.312;2023-02-08T12:34:19;20.50;19.75;9.75
27143;PMS1003;14672;50.250;8.312;2023-02-08T12:52:39;19.50;17.75;7.00
27143;PMS1003;14672;50.250;8.312;2023-02-08T12:58:13;16.00;16.00;8.00
27143;PMS1003;14672;50.250;8.312;2023-02-08T13:00:57;19.00;18.25;9.50
27143;PMS1003;14672;50.250;8.312;2023-02-08T13:04:44;22.00;19.75;9.00
27143;PMS1003;14672;50.250;8.312;2023-02-08T13:07:13;21.00;18.25;9.75
27143;PMS1003;14672;50.250;8.312;2023-02-08T13:10:01;24.00;22.75;9.75
27143;PMS1003;14672;50.250;8.312;2023-02-08T13:12:38;22.00;22.00;9.00
27143;PMS1003;14672;50.250;8.312;2023-02-08T13:15:21;20.75;18.50;9.25
27143;PMS1003;14672;50.250;8.312;2023-02-08T13:18:17;21.50;20.00;10.00
27143;PMS1003;14672;50.250;8.312;2023-02-08T13:23:19;23.00;19.25;8.00
27143;PMS1003;14672;50.250;8.312;2023-02-08T13:26:02;23.75;22.75;10.50
27143;PMS1003;14672;50.250;8.312;2023-02-08T13:28:35;19.00;17.50;9.00
27143;PMS1003;14672;50.250;8.312;2023-02-08T13:33:41;24.00;21.50;9.75
27143;PMS1003;14672;50.250;8.312;2023-02-08T13:38:58;16.75;16.25;9.75
27143;PMS1003;14672;50.250;8.312;2023-02-08T13:41:27;25.25;23.00;11.25
27143;PMS1003;14672;50.250;8.312;2023-02-08T13:46:44;20.25;19.75;9.75
27143;PMS1003;14672;50.250;8.312;2023-02-08T13:58:03;19.00;18.50;10.25
27143;PMS1003;14672;50.250;8.312;2023-02-08T14:01:21;19.25;19.25;10.00
27143;PMS1003;14672;50.250;8.312;2023-02-08T14:04:13;21.50;21.50;10.25
27143;PMS1003;14672;50.250;8.312;2023-02-08T14:06:42;23.00;20.25;9.75
27143;PMS1003;14672;50.250;8.312;2023-02-08T14:09:30;27.25;19.50;9.75
27143;PMS1003;14672;50.250;8.312;2023-02-08T14:12:20;25.25;22.50;12.00
27143;PMS1003;14672;50.250;8.312;2023-02-08T14:17:54;23.00;20.75;9.00
27143;PMS1003;14672;50.250;8.312;2023-02-08T14:20:25;16.50;15.50;6.75
27143;PMS1003;14672;50.250;8.312;2023-02-08T14:23:06;17.75;17.75;8.00
27143;PMS1003;14672;50.250;8.312;2023-02-08T14:25:55;18.75;17.00;8.00
27143;PMS1003;14672;50.250;8.312;2023-02-08T14:28:37;17.50;14.00;7.00
27143;PMS1003;14672;50.250;8.312;2023-02-08T14:31:10;16.75;16.50;8.50
27143;PMS1003;14672;50.250;8.312;2023-02-08T14:33:40;15.75;15.75;7.00
27143;PMS1003;14672;50.250;8.312;2023-02-08T14:36:37;21.00;19.50;9.00
27143;PMS1003;14672;50.250;8.312;2023-02-08T14:39:06;20.75;20.50;9.25
27143;PMS1003;14672;50.250;8.312;2023-02-08T14:42:09;27.00;24.00;11.50
27143;PMS1003;14672;50.250;8.312;2023-02-08T14:52:47;17.00;14.25;6.00
27143;PMS1003;14672;50.250;8.312;2023-02-08T14:55:31;16.25;15.50;6.50
27143;PMS1003;14672;50.250;8.312;2023-02-08T14:58:05;16.50;14.00;7.00
27143;PMS1003;14672;50.250;8.312;2023-02-08T15:00:36;16.50;14.75;6.00
27143;PMS1003;14672;50.250;8.312;2023-02-08T15:03:03;22.25;18.75;9.50
27143;PMS1003;14672;50.250;8.312;2023-02-08T15:05:45;23.75;20.75;9.00
27143;PMS1003;14672;50.250;8.312;2023-02-08T15:08:51;28.00;25.50;11.00
27143;PMS1003;14672;50.250;8.312;2023-02-08T15:11:20;30.00;28.00;13.50
27143;PMS1003;14672;50.250;8.312;2023-02-08T15:13:51;25.25;24.50;11.00
27143;PMS1003;14672;50.250;8.312;2023-02-08T15:16:21;31.75;28.75;15.75
27143;PMS1003;14672;50.250;8.312;2023-02-08T15:18:58;34.00;32.00;15.25
27143;PMS1003;14672;50.250;8.312;2023-02-08T15:21:28;26.75;25.00;12.00
27143;PMS1003;14672;50.250;8.312;2023-02-08T15:23:57;30.50;28.25;12.75
27143;PMS1003;14672;50.250;8.312;2023-02-08T15:26:32;25.75;22.50;12.25
27143;PMS1003;14672;50.250;8.312;2023-02-08T15:28:58;28.00;23.25;12.00
27143;PMS1003;14672;50.250;8.312;2023-02-08T15:31:30;25.00;24.00;11.00
27143;PMS1003;14672;50.250;8.312;2023-02-08T15:33:58;23.00;23.00;11.00
27143;PMS1003;14672;50.250;8.312;2023-02-08T15:36:30;30.75;28.50;15.75
27143;PMS1003;14672;50.250;8.312;2023-02-08T15:39:00;24.50;21.25;10.50
27143;PMS1003;14672;50.250;8.312;2023-02-08T15:41:35;20.50;18.75;8.00
27143;PMS1003;14672;50.250;8.312;2023-02-08T15:46:48;19.25;17.25;7.00
27143;PMS1003;14672;50.250;8.312;2023-02-08T15:49:18;29.00;28.00;14.25
27143;PMS1003;14672;50.250;8.312;2023-02-08T15:51:53;33.75;32.25;17.25
27143;PMS1003;14672;50.250;8.312;2023-02-08T15:54:21;37.00;34.25;19.75
27143;PMS1003;14672;50.250;8.312;2023-02-08T15:56:48;38.50;37.25;22.25
27143;PMS1003;14672;50.250;8.312;2023-02-08T15:59:27;49.50;42.75;22.00
27143;PMS1003;14672;50.250;8.312;2023-02-08T16:01:57;33.25;27.25;14.75
27143;PMS1003;14672;50.250;8.312;2023-02-08T16:04:43;64.00;54.80;33.60
27143;PMS1003;14672;50.250;8.312;2023-02-08T16:10:01;44.75;38.50;19.50
27143;PMS1003;14672;50.250;8.312;2023-02-08T16:12:29;53.50;45.50;24.00
27143;PMS1003;14672;50.250;8.312;2023-02-08T16:14:55;51.75;46.50;22.50
27143;PMS1003;14672;50.250;8.312;2023-02-08T16:17:27;42.50;35.25;16.75
27143;PMS1003;14672;50.250;8.312;2023-02-08T16:19:55;39.50;37.25;20.75
27143;PMS1003;14672;50.250;8.312;2023-02-08T16:24:52;31.25;28.25;14.25
27143;PMS1003;14672;50.250;8.312;2023-02-08T16:27:29;22.25;21.25;11.00
27143;PMS1003;14672;50.250;8.312;2023-02-08T16:29:57;71.60;56.80;31.20
27143;PMS1003;14672;50.250;8.312;2023-02-08T16:32:28;63.40;56.60;28.00
27143;PMS1003;14672;50.250;8.312;2023-02-08T16:37:55;28.50;25.50;11.75
27143;PMS1003;14672;50.250;8.312;2023-02-08T16:45:46;28.50;23.00;9.00
27143;PMS1003;14672;50.250;8.312;2023-02-08T16:51:20;59.60;56.80;34.40
27143;PMS1003;14672;50.250;8.312;2023-02-08T16:53:55;22.25;22.25;12.00
27143;PMS1003;14672;50.250;8.312;2023-02-08T16:56:33;21.75;20.25;10.50
27143;PMS1003;14672;50.250;8.312;2023-02-08T16:59:00;56.00;47.00;29.60
27143;PMS1003;14672;50.250;8.312;2023-02-08T17:01:25;29.33;29.33;18.00
27143;PMS1003;14672;50.250;8.312;2023-02-08T17:03:52;49.60;48.00;29.20
27143;PMS1003;14672;50.250;8.312;2023-02-08T17:06:24;38.00;35.00;20.50
27143;PMS1003;14672;50.250;8.312;2023-02-08T17:09:03;40.00;32.00;17.50
27143;PMS1003;14672;50.250;8.312;2023-02-08T17:11:32;49.00;39.50;21.50
27143;PMS1003;14672;50.250;8.312;2023-02-08T17:13:59;37.00;33.50;16.00
27143;PMS1003;14672;50.250;8.312;2023-02-08T17:16:28;38.50;36.00;19.00
27143;PMS1003;14672;50.250;8.312;2023-02-08T17:18:56;25.00;23.00;11.00
27143;PMS1003;14672;50.250;8.312;2023-02-08T17:21:24;35.50;30.50;13.00